Woodland Park, Colorado
Current Conditions -  °F | °C
As of 10:58 PM on Tuesday 27 Jan 2015 (Local Time) from KAFF Reporting Station
Clear Clear  
Wind Chill: 45°   Ceiling: Unl
Heat Index: 49°   Visibility: 10mi
Dew Point: 16°   Wind: 10mph
Humidity: 26%   Direction: 360°N
Pressure: 30.05"   Gusts: NA
Location:  38.99°N, 105.05°W
Report Text: KAFF 280558Z AUTO 36009KT 320V030 10SM CLR 10/M09 A3005 RMK AO2 PK WND 31028/0458 SLP114 T00971089 10158 20033 55005
Loading
Personal Weather Stations






























Interactive Weather Map New forecast layout! Learn more

10-Day Weather Forecast

Advertisements
Track Severe Weather on mobile